UMMS/MSQ METAR and TAF weather

Enter ICAO airport designator
Station Type Date Time Source
UMMS METAR 2022/11/26 09:20 UTC NOAA

UMMS 260920Z 05002MPS 2200 -SHSN BR BKN004 BKN033CB M02/M03 Q1023 NOSIG RMK QBB


Station Type Date Time Source
UMMS Decoded METAR 2022/11/26 09:20 UTC NOAA

Minsk, Belarus (UMMS) 53-56N 027-38E 231M
Nov 26, 2022 - 04:20 AM EST / 2022.11.26 0920 UTC
Wind: from the NE (050 degrees) at 4 MPH (4 KT):0
Visibility: 1 mile(s):0
Sky conditions: mostly cloudy
Weather: light snow showers; mist; Cumulonimbus clouds observed
Temperature: 28 F (-2 C)
Dew Point: 26 F (-3 C)
Relative Humidity: 92%
Pressure (altimeter): 30.21 in. Hg (1023 hPa)
ob: UMMS 260920Z 05002MPS 2200 -SHSN BR BKN004 BKN033CB M02/M03 Q1023 NOSIG RMK QBB120
cycle: 9

Station Type Date Time Source
UMMS TAF 2022/11/26 06:21 UTC NOAA

TAF TAF UMMS 260502Z 2606/2706 VRB02MPS 1200 SN BR BKN003 OVC015
TEMPO 2606/2609 0300 -FZDZ +SHSNRA FZFG OVC001 BKN018CB
FM260900 VRB02MPS 3000 -SN BR BKN004 OVC020
TEMPO 2609/2706 0300 -FZDZ +SHSN FZFG OVC002 BKN012CB

Example: see airport list